Mccreary, Canada
Current Conditions -  °F | °C
As of 9:40 PM on Saturday 24 Jan 2015 (Local Time) from CYDN Reporting Station
Light Snow Light Snow  
Wind Chill: -4°   Ceiling: 3900
Heat Index:   Visibility: 5mi
Dew Point:   Wind: 8mph
Humidity: 85%   Direction: 80°E
Pressure: 29.92"   Gusts: NA
Location:  50.78°N, 99.48°W
Report Text: CYDN 250340Z AUTO 08007KT 5SM -SN OVC039 M13/M15 A2992 RMK SLP159
Loading
Personal Weather Stations






























Interactive Weather Map New forecast layout! Learn more

10-Day Weather Forecast

Advertisements
Track Severe Weather on mobile